Главная страница
METAR-TAF:

METAR-TAF

Аэропорты :

Алис-Спрингс, Австралия

широта: 23-48S, долгота: 133-53E, высота над уровнем моря: 545 м

Текущие метеонаблюдения

Эта сводка был подготовлена 42 минут назад, в 00:30 UTC
Ветер 13 Узел от юго-восточный
Температура 23°C
Влажность 36%
Давление 1021 hPa
Видимость 10 км и более
Нет облачности ниже 1500 м, и нет кучево-дождевой облачности

METAR: YBAS 160030Z 13013KT CAVOK 23/07 Q1021

Время: 10:42 (01:12 UTC)

Прогноз

Эта сводка был подготовлена 2 часа и 2 минут назад, в 23:10 UTC
Прогноз действительный с 16-го 00 UTC до 16-го 24 UTC
Ветер 14 Узел от юго-восточный
Видимость 10 км и более
Нет облачности ниже 1500 м, и нет кучево-дождевой облачности
С 16-го 0900 UTC
Ветер 7 Узел от юго-восточный
Видимость 10 км и более
Нет облачности ниже 1500 м, и нет кучево-дождевой облачности

TAF: YBAS 152310Z 1600/1624 13014KT CAVOK FM160900 13007KT CAVOK

Метеонаблюдения и прогнозы для более 4000 аэропортов (сводки METAR и TAF).

Имеющиеся станции представлены на карте желтыми и красными точками.

Чтобы увидеть название станции, наведите на нее мышь.

Затем щелкните, чтобы увидеть метеонаблюдения и метеопрогнозы.

Управление картой: чтобы увеличить масштаб, щелкните зеленые кнопки с черным крестиком; чтобы уменьшить масштаб, щелкните зеленую кнопку с тире; для просмотра соседних карт щелкайте зеленые стрелки.


METAR-TAF: